Worcester, New York
Current Conditions -  °F | °C
As of 12:55 PM on Tuesday 21 Oct 2014 (Local Time) from KNY0 Reporting Station
Overcast Overcast  
Wind Chill: 43°   Ceiling: 600
Heat Index: 47°   Visibility: 7mi
Dew Point: 46°   Wind: 9mph
Humidity: 94%   Direction: 90°E
Pressure: 29.91"   Gusts: NA
Location:  42.59°N, 74.75°W
Report Text: KNY0 211655Z AUTO 09008KT 7SM OVC006 09/08 A2991 RMK AO2 T00860077
Loading
Personal Weather Stations






























Interactive Weather Map
Tropical Storm Tracking
New forecast layout! Learn more

10-Day Weather Forecast

Advertisements
Track Severe Weather on mobile